Time;durP1;ratioP1;P1;durP2;ratioP2;P2;SDS_P1;SDS_P2;PMS_P1;PMS_P2;Temp;Humidity;BMP_temperature;BMP_pressure;BME280_temperature;BME280_humidity;BME280_pressure;Samples;Min_cycle;Max_cycle;Signal;HPM_P1;HPM_P2
2023/07/08 00:00:47;;;;;;;6.85;3.17;;;16.30;99.90;;;;;;5135869;27;20047;-25
2023/07/08 00:03:14;;;;;;;5.25;3.33;;;16.30;99.90;;;;;;5135545;27;20507;-24
2023/07/08 00:05:40;;;;;;;7.15;4.05;;;16.20;99.90;;;;;;5135192;27;20512;-24
2023/07/08 00:08:11;;;;;;;5.35;3.60;;;16.20;99.90;;;;;;5116889;27;20066;-24
2023/07/08 00:10:37;;;;;;;9.52;3.90;;;16.20;99.90;;;;;;5136325;27;20377;-24
2023/07/08 00:13:02;;;;;;;5.10;3.38;;;16.10;99.90;;;;;;5135928;27;20054;-24
2023/07/08 00:15:32;;;;;;;5.93;3.58;;;16.10;99.90;;;;;;5135898;27;20381;-25
2023/07/08 00:18:00;;;;;;;7.95;3.45;;;16.10;99.90;;;;;;5135327;27;20075;-25
2023/07/08 00:20:37;;;;;;;7.50;3.55;;;16.10;99.90;;;;;;5135468;27;20043;-24
2023/07/08 00:23:03;;;;;;;6.53;3.72;;;16.10;1.00;;;;;;5115884;27;20082;-25
2023/07/08 00:25:29;;;;;;;6.80;3.67;;;16.10;1.00;;;;;;5099915;27;20082;-24
2023/07/08 00:27:55;;;;;;;8.55;3.60;;;16.10;1.00;;;;;;5135178;27;20464;-24
2023/07/08 00:30:26;;;;;;;5.80;3.50;;;16.00;1.00;;;;;;5135936;27;20079;-24
2023/07/08 00:32:56;;;;;;;6.35;3.90;;;16.00;1.00;;;;;;5117778;27;20365;-24
2023/07/08 00:35:33;;;;;;;5.95;3.20;;;16.00;1.00;;;;;;5134989;27;20053;-24
2023/07/08 00:38:01;;;;;;;7.78;3.88;;;16.00;1.00;;;;;;5134908;27;20492;-25
2023/07/08 00:40:32;;;;;;;6.78;3.28;;;16.00;1.00;;;;;;5134926;27;20099;-24
2023/07/08 00:43:02;;;;;;;6.43;3.90;;;15.90;1.00;;;;;;5134976;27;20133;-24
2023/07/08 00:45:31;;;;;;;7.65;3.92;;;15.90;1.00;;;;;;5135496;27;20104;-24
2023/07/08 00:48:04;;;;;;;6.25;3.75;;;15.90;1.00;;;;;;5134872;27;20046;-24
2023/07/08 00:50:30;;;;;;;6.95;3.92;;;15.90;1.00;;;;;;5135684;27;20036;-24
2023/07/08 00:53:24;;;;;;;6.30;3.50;;;15.90;1.00;;;;;;5135097;27;20099;-25
2023/07/08 00:55:53;;;;;;;4.75;3.25;;;15.90;1.00;;;;;;5134763;27;20058;-24
2023/07/08 00:58:22;;;;;;;6.72;3.78;;;15.90;1.00;;;;;;5135279;27;20058;-24
2023/07/08 01:00:49;;;;;;;7.40;4.50;;;15.90;1.00;;;;;;5117177;27;20057;-25
2023/07/08 01:03:17;;;;;;;6.28;3.90;;;15.90;1.00;;;;;;5134952;28;20047;-24
2023/07/08 01:05:45;;;;;;;8.20;4.30;;;15.90;1.00;;;;;;5134703;28;20043;-25
2023/07/08 01:08:10;;;;;;;5.07;3.70;;;15.80;1.00;;;;;;5134505;28;20058;-24
2023/07/08 01:10:42;;;;;;;9.00;3.70;;;15.80;4.70;;;;;;5134299;28;20088;-24
2023/07/08 01:13:09;;;;;;;5.30;3.65;;;15.80;60.60;;;;;;5134292;28;20481;-24
2023/07/08 01:15:42;;;;;;;5.63;3.47;;;15.80;1.00;;;;;;5134613;28;20040;-24
2023/07/08 01:18:11;;;;;;;6.97;4.35;;;15.80;1.00;;;;;;5135191;28;20123;-25
2023/07/08 01:20:40;;;;;;;6.20;4.03;;;15.80;1.00;;;;;;5135275;28;20048;-24
2023/07/08 01:23:05;;;;;;;6.95;3.75;;;15.70;1.00;;;;;;5116174;28;20499;-24
2023/07/08 01:25:32;;;;;;;6.22;4.03;;;15.60;1.00;;;;;;5134458;28;20043;-24
2023/07/08 01:27:57;;;;;;;8.00;4.20;;;15.60;1.00;;;;;;5134419;28;20494;-24
2023/07/08 01:30:25;;;;;;;6.15;3.97;;;15.60;1.00;;;;;;5134437;28;20104;-25
2023/07/08 01:32:57;;;;;;;6.72;4.10;;;15.60;23.50;;;;;;5116296;27;20051;-24
2023/07/08 01:35:23;;;;;;;6.30;3.88;;;15.50;73.90;;;;;;5139354;27;20035;-24
2023/07/08 01:37:51;;;;;;;6.47;4.90;;;15.50;99.90;;;;;;5104080;27;20107;-25
2023/07/08 01:40:24;;;;;;;6.53;3.95;;;15.40;99.90;;;;;;5138321;27;20078;-24
2023/07/08 01:42:51;;;;;;;7.40;4.57;;;15.40;99.90;;;;;;5138380;27;20126;-24
2023/07/08 01:45:19;;;;;;;8.32;4.28;;;15.30;99.90;;;;;;5139116;27;20074;-24
2023/07/08 01:47:53;;;;;;;9.45;5.75;;;15.30;99.90;;;;;;5138242;27;20408;-24
2023/07/08 01:50:20;;;;;;;8.10;4.95;;;15.20;99.90;;;;;;5139068;27;20455;-24
2023/07/08 01:52:48;;;;;;;6.32;4.85;;;15.20;99.90;;;;;;5120042;27;20488;-24
2023/07/08 01:55:14;;;;;;;10.43;4.18;;;15.10;99.90;;;;;;5138070;27;20516;-24
2023/07/08 01:57:39;;;;;;;7.60;4.90;;;15.10;1.00;;;;;;5137982;27;20082;-24
2023/07/08 02:00:06;;;;;;;7.18;4.95;;;15.00;1.00;;;;;;5137901;27;20126;-25
2023/07/08 02:02:31;;;;;;;8.57;4.60;;;15.00;1.00;;;;;;5138694;27;20093;-24
2023/07/08 02:04:57;;;;;;;11.57;5.05;;;15.00;1.00;;;;;;5119639;27;20082;-24
2023/07/08 02:07:23;;;;;;;9.98;4.90;;;15.10;17.20;;;;;;5137298;27;20047;-24
2023/07/08 02:09:48;;;;;;;10.55;5.13;;;15.10;39.80;;;;;;5138417;27;20047;-24
2023/07/08 02:12:14;;;;;;;8.65;4.78;;;15.10;34.10;;;;;;5137769;27;20043;-24
2023/07/08 02:14:40;;;;;;;10.55;4.95;;;15.00;35.40;;;;;;5102727;27;20051;-24
2023/07/08 02:17:05;;;;;;;8.30;4.82;;;15.00;99.90;;;;;;5138322;27;20050;-25
2023/07/08 02:19:31;;;;;;;9.90;5.60;;;15.00;99.90;;;;;;5138252;27;20054;-24
2023/07/08 02:21:57;;;;;;;6.75;4.75;;;15.00;99.90;;;;;;5119315;27;20480;-24
2023/07/08 02:24:23;;;;;;;9.57;5.20;;;15.00;99.90;;;;;;5119729;27;20039;-24
2023/07/08 02:26:49;;;;;;;10.05;5.53;;;14.90;99.90;;;;;;5119937;27;20092;-24
2023/07/08 02:29:15;;;;;;;8.02;5.53;;;15.00;99.90;;;;;;5102693;27;20096;-24
2023/07/08 02:31:40;;;;;;;7.30;5.40;;;14.90;99.90;;;;;;5119086;27;20446;-24
2023/07/08 02:34:06;;;;;;;8.30;5.00;;;14.90;99.90;;;;;;5119429;27;20096;-24
2023/07/08 02:36:34;;;;;;;9.82;5.75;;;14.90;99.90;;;;;;5137053;27;20087;-24
2023/07/08 02:39:00;;;;;;;8.80;5.22;;;14.90;99.90;;;;;;5119263;27;20454;-24
2023/07/08 02:41:26;;;;;;;8.02;4.90;;;14.90;99.90;;;;;;5119941;27;20043;-25
2023/07/08 02:43:51;;;;;;;8.63;5.25;;;14.90;99.90;;;;;;5137197;27;20043;-24
2023/07/08 02:46:17;;;;;;;9.27;5.95;;;14.90;99.90;;;;;;5117897;27;20066;-24
2023/07/08 02:48:43;;;;;;;8.40;4.80;;;14.90;99.90;;;;;;5119373;27;20078;-24
2023/07/08 02:51:09;;;;;;;9.02;5.30;;;14.80;99.90;;;;;;5136987;27;20082;-24
2023/07/08 02:53:35;;;;;;;11.30;5.60;;;14.80;99.90;;;;;;5137071;27;20047;-24
2023/07/08 02:56:01;;;;;;;7.57;5.22;;;14.90;99.90;;;;;;5119060;27;20392;-25
2023/07/08 02:58:26;;;;;;;10.82;6.25;;;14.90;99.90;;;;;;5136843;27;20047;-25
2023/07/08 03:00:59;;;;;;;10.18;6.20;;;14.80;99.90;;;;;;5118382;27;20076;-24
2023/07/08 03:03:24;;;;;;;10.38;5.40;;;14.80;99.90;;;;;;5118557;27;20043;-24
2023/07/08 03:05:55;;;;;;;5.97;5.03;;;14.80;99.90;;;;;;5137255;27;20043;-24
2023/07/08 03:08:20;;;;;;;10.90;5.85;;;14.80;1.00;;;;;;5118184;27;20404;-24
2023/07/08 03:10:48;;;;;;;8.35;5.47;;;14.80;1.00;;;;;;5137177;27;20047;-24
2023/07/08 03:13:14;;;;;;;8.05;5.63;;;14.80;1.00;;;;;;5136583;27;20051;-24
2023/07/08 03:15:40;;;;;;;10.57;6.10;;;14.70;1.00;;;;;;5118684;27;20039;-24
2023/07/08 03:18:07;;;;;;;9.38;5.60;;;14.80;1.00;;;;;;5136462;27;20042;-24
2023/07/08 03:20:36;;;;;;;10.48;5.85;;;14.70;1.00;;;;;;5117991;27;20050;-24
2023/07/08 03:23:02;;;;;;;10.00;5.50;;;14.80;1.00;;;;;;5137223;27;20047;-24
2023/07/08 03:25:27;;;;;;;7.75;5.35;;;14.80;1.00;;;;;;5136919;27;20453;-24
2023/07/08 03:27:55;;;;;;;9.55;5.70;;;14.80;1.00;;;;;;5136899;27;20134;-24
2023/07/08 03:30:20;;;;;;;9.57;5.97;;;14.80;1.00;;;;;;5101753;27;20039;-24
2023/07/08 03:32:46;;;;;;;8.27;5.90;;;14.80;1.00;;;;;;5136405;27;20490;-24
2023/07/08 03:35:12;;;;;;;14.00;6.70;;;14.80;1.00;;;;;;5135812;27;20508;-24
2023/07/08 03:37:37;;;;;;;11.93;6.15;;;14.90;1.00;;;;;;5118341;27;20126;-24
2023/07/08 03:40:03;;;;;;;10.48;5.47;;;14.90;1.00;;;;;;5135588;27;20100;-24
2023/07/08 03:42:29;;;;;;;11.05;5.75;;;14.90;1.00;;;;;;5117882;27;20047;-24
2023/07/08 03:44:55;;;;;;;9.95;5.50;;;14.90;1.00;;;;;;5117665;27;20050;-24
2023/07/08 03:47:20;;;;;;;9.02;5.90;;;14.90;1.00;;;;;;5135900;27;20125;-24
2023/07/08 03:49:46;;;;;;;8.88;6.10;;;14.90;1.00;;;;;;5135785;27;20381;-24
2023/07/08 03:52:15;;;;;;;9.27;6.15;;;14.90;1.00;;;;;;5117449;27;20047;-25
2023/07/08 03:54:41;;;;;;;11.20;6.63;;;15.00;1.00;;;;;;5117622;27;20511;-24
2023/07/08 03:57:07;;;;;;;8.60;6.78;;;15.00;1.00;;;;;;5117945;27;20038;-24
2023/07/08 03:59:33;;;;;;;8.68;6.18;;;15.00;1.00;;;;;;5117509;27;20529;-24
2023/07/08 04:01:58;;;;;;;14.20;6.40;;;15.10;1.00;;;;;;5117934;27;20353;-24
2023/07/08 04:04:24;;;;;;;8.23;5.65;;;15.10;1.00;;;;;;5117202;27;20080;-24
2023/07/08 04:06:51;;;;;;;9.00;5.47;;;15.10;1.00;;;;;;5135500;27;20042;-24
2023/07/08 04:09:17;;;;;;;10.80;5.57;;;15.20;1.00;;;;;;5100830;27;20059;-25
2023/07/08 04:11:42;;;;;;;7.53;5.43;;;15.30;1.00;;;;;;5135734;27;20446;-24
2023/07/08 04:14:11;;;;;;;10.52;5.90;;;15.30;1.00;;;;;;5100416;27;20051;-24
2023/07/08 04:16:45;;;;;;;10.15;6.13;;;15.40;1.00;;;;;;5117235;27;20086;-24
2023/07/08 04:19:14;;;;;;;6.30;5.53;;;15.40;1.00;;;;;;5135870;27;20131;-24
2023/07/08 04:21:41;;;;;;;9.63;5.57;;;15.50;1.00;;;;;;5117994;27;20122;-24
2023/07/08 04:24:09;;;;;;;10.85;5.35;;;15.50;1.00;;;;;;5135294;27;20542;-24
2023/07/08 04:26:35;;;;;;;6.90;5.25;;;15.60;1.00;;;;;;5136022;27;20086;-24
2023/07/08 04:29:01;;;;;;;12.05;6.05;;;15.60;1.00;;;;;;5135168;27;20078;-24
2023/07/08 04:31:27;;;;;;;11.07;5.30;;;15.70;1.00;;;;;;5135079;27;20400;-24
2023/07/08 04:33:53;;;;;;;10.50;6.45;;;15.70;1.00;;;;;;5116651;27;20055;-24
2023/07/08 04:36:21;;;;;;;10.82;5.60;;;15.80;1.00;;;;;;5135010;27;20085;-24
2023/07/08 04:38:47;;;;;;;9.35;4.90;;;15.80;99.90;;;;;;5117072;27;20047;-24
2023/07/08 04:41:13;;;;;;;6.85;5.38;;;15.90;99.90;;;;;;5117345;27;20039;-24
2023/07/08 04:43:38;;;;;;;6.57;5.10;;;16.00;99.90;;;;;;5134921;27;20489;-24
2023/07/08 04:46:18;;;;;;;8.32;5.15;;;16.00;99.90;;;;;;5135168;27;20039;-24
2023/07/08 04:48:45;;;;;;;6.72;5.28;;;16.10;99.90;;;;;;5135152;27;20043;-24
2023/07/08 04:51:11;;;;;;;6.65;4.45;;;16.10;99.90;;;;;;5083123;27;20050;-24
2023/07/08 04:53:36;;;;;;;7.68;5.18;;;16.20;99.90;;;;;;5134775;27;20047;-24
2023/07/08 04:56:03;;;;;;;8.40;4.82;;;16.30;99.90;;;;;;5116695;28;20403;-25
2023/07/08 04:58:28;;;;;;;7.68;5.10;;;16.30;99.90;;;;;;5134756;27;20058;-25
2023/07/08 05:00:54;;;;;;;9.43;4.95;;;16.40;99.90;;;;;;5116300;27;20405;-25
2023/07/08 05:03:20;;;;;;;8.80;4.53;;;16.40;99.90;;;;;;5135010;27;20055;-24
2023/07/08 05:05:45;;;;;;;8.82;4.75;;;16.50;99.90;;;;;;5134899;28;20415;-24
2023/07/08 05:08:12;;;;;;;9.38;4.95;;;16.60;99.90;;;;;;5137417;27;20058;-24
2023/07/08 05:10:38;;;;;;;8.63;4.95;;;16.60;99.90;;;;;;5141570;27;20085;-25
2023/07/08 05:13:05;;;;;;;8.07;5.03;;;16.80;99.90;;;;;;5107177;27;20054;-24
2023/07/08 05:15:31;;;;;;;7.88;4.68;;;16.90;99.90;;;;;;5142282;27;20047;-24
2023/07/08 05:17:56;;;;;;;5.72;4.15;;;16.90;99.90;;;;;;5141746;27;20485;-24
2023/07/08 05:20:22;;;;;;;7.63;4.45;;;17.10;99.90;;;;;;5123854;27;20039;-24
2023/07/08 05:22:48;;;;;;;6.65;4.38;;;17.40;99.90;;;;;;5122714;27;20485;-24
2023/07/08 05:25:15;;;;;;;12.73;4.50;;;17.70;1.00;;;;;;5123049;27;20043;-24
2023/07/08 05:27:41;;;;;;;8.27;4.93;;;18.10;1.00;;;;;;5141901;27;20126;-24
2023/07/08 05:30:11;;;;;;;9.80;4.30;;;18.80;99.90;;;;;;5106052;27;20476;-24
2023/07/08 05:32:37;;;;;;;10.82;4.47;;;19.00;1.00;;;;;;5123066;27;20493;-24
2023/07/08 05:35:03;;;;;;;8.02;4.90;;;18.90;1.00;;;;;;5141825;27;20086;-24
2023/07/08 05:37:29;;;;;;;10.07;4.60;;;19.10;1.00;;;;;;5141197;27;20090;-24
2023/07/08 05:39:55;;;;;;;6.07;4.18;;;19.30;1.00;;;;;;5141383;27;20043;-24
2023/07/08 05:42:21;;;;;;;10.40;4.18;;;20.00;99.90;;;;;;5105738;27;20082;-24
2023/07/08 05:44:48;;;;;;;7.13;4.47;;;20.70;99.90;;;;;;5123006;27;20079;-24
2023/07/08 05:47:14;;;;;;;6.05;4.15;;;21.30;66.70;;;;;;5122547;27;20058;-24
2023/07/08 05:49:40;;;;;;;7.13;4.22;;;21.80;99.90;;;;;;5140930;27;20484;-24
2023/07/08 05:52:10;;;;;;;8.05;4.68;;;22.10;99.90;;;;;;5122634;27;20042;-24
2023/07/08 05:54:40;;;;;;;7.82;4.32;;;22.30;1.00;;;;;;5089391;27;20472;-24
2023/07/08 05:57:08;;;;;;;7.07;4.03;;;22.60;1.00;;;;;;5122739;27;20047;-24
2023/07/08 05:59:35;;;;;;;7.85;3.95;;;22.90;99.90;;;;;;5140855;27;20039;-24
2023/07/08 06:02:02;;;;;;;11.05;4.35;;;23.10;72.10;;;;;;5141549;27;20043;-24
2023/07/08 06:04:28;;;;;;;7.43;4.30;;;23.30;1.00;;;;;;5141019;27;20047;-26
2023/07/08 06:06:54;;;;;;;7.18;3.60;;;23.30;1.00;;;;;;5141000;27;20043;-25
2023/07/08 06:09:20;;;;;;;6.65;4.18;;;23.80;1.00;;;;;;5122329;27;20061;-25
2023/07/08 06:11:46;;;;;;;10.80;4.18;;;23.80;99.90;;;;;;5105927;27;20051;-24
2023/07/08 06:14:12;;;;;;;6.55;3.97;;;24.10;99.90;;;;;;5088751;27;20043;-26
2023/07/08 06:16:38;;;;;;;6.68;3.60;;;24.30;99.90;;;;;;5140578;27;20092;-26
2023/07/08 06:19:03;;;;;;;6.97;3.83;;;24.20;99.90;;;;;;5140588;27;20039;-25
2023/07/08 06:21:29;;;;;;;6.20;3.45;;;24.40;99.90;;;;;;5102168;27;20133;-25
2023/07/08 06:23:55;;;;;;;6.70;3.20;;;24.50;1.00;;;;;;5119183;27;20048;-25
2023/07/08 06:26:20;;;;;;;8.00;3.13;;;24.40;1.00;;;;;;5102305;27;20039;-25
2023/07/08 06:28:46;;;;;;;7.53;3.67;;;24.60;1.00;;;;;;5137370;27;20505;-26
2023/07/08 06:31:12;;;;;;;6.45;3.40;;;24.90;1.00;;;;;;5119249;27;20484;-26
2023/07/08 06:33:37;;;;;;;7.78;3.45;;;25.20;1.00;;;;;;5119678;27;20093;-26
2023/07/08 06:36:04;;;;;;;5.07;3.00;;;25.50;1.00;;;;;;5137644;27;20050;-25
2023/07/08 06:38:30;;;;;;;7.65;3.45;;;25.60;1.00;;;;;;5137232;27;20058;-25
2023/07/08 06:40:55;;;;;;;7.30;3.17;;;25.70;99.90;;;;;;5137149;27;20051;-25
2023/07/08 06:43:21;;;;;;;6.45;3.58;;;25.60;99.90;;;;;;5138043;27;20095;-25
2023/07/08 06:45:47;;;;;;;4.70;2.88;;;25.70;99.90;;;;;;5086072;27;20043;-26
2023/07/08 06:48:12;;;;;;;5.18;3.28;;;25.80;99.90;;;;;;5137051;27;20126;-25
2023/07/08 06:50:38;;;;;;;5.53;3.05;;;25.80;99.90;;;;;;5137066;27;20074;-25
2023/07/08 06:53:04;;;;;;;11.93;4.07;;;26.00;99.90;;;;;;5085859;27;20130;-26
2023/07/08 06:55:30;;;;;;;4.38;2.90;;;25.90;99.90;;;;;;5118561;27;20078;-26
2023/07/08 06:57:55;;;;;;;5.32;2.63;;;26.10;99.90;;;;;;5136966;27;20058;-25
2023/07/08 07:00:21;;;;;;;9.63;5.47;;;26.10;99.90;;;;;;5136775;27;20044;-25
2023/07/08 07:02:47;;;;;;;8.85;3.40;;;26.30;99.90;;;;;;5136765;27;20075;-26
2023/07/08 07:05:12;;;;;;;7.05;2.67;;;26.50;99.90;;;;;;5133235;27;20082;-24
2023/07/08 07:07:38;;;;;;;5.30;2.95;;;26.70;99.90;;;;;;5116816;27;20134;-24
2023/07/08 07:10:05;;;;;;;4.20;2.75;;;26.70;99.90;;;;;;5135795;27;20058;-25
2023/07/08 07:12:31;;;;;;;5.13;2.53;;;26.80;99.90;;;;;;5137200;27;20086;-26
2023/07/08 07:14:57;;;;;;;6.57;3.00;;;26.80;99.90;;;;;;5133769;27;20081;-26
2023/07/08 07:17:24;;;;;;;5.75;2.60;;;27.30;99.90;;;;;;5119243;27;20050;-26
2023/07/08 07:19:50;;;;;;;4.30;2.70;;;27.20;99.90;;;;;;5118170;27;20066;-26
2023/07/08 07:22:16;;;;;;;4.57;2.60;;;27.40;99.90;;;;;;5117351;27;20473;-25
2023/07/08 07:24:42;;;;;;;4.93;2.55;;;27.60;99.90;;;;;;5134771;27;20054;-25
2023/07/08 07:27:09;;;;;;;7.07;3.10;;;27.60;99.90;;;;;;5136318;27;20047;-26
2023/07/08 07:29:49;;;;;;;5.13;2.80;;;27.70;96.80;;;;;;5136367;27;20047;-26
2023/07/08 07:32:16;;;;;;;6.93;2.95;;;27.70;53.90;;;;;;5135878;27;20047;-26
2023/07/08 07:34:42;;;;;;;5.03;2.40;;;27.80;68.40;;;;;;5136084;27;20039;-26
2023/07/08 07:37:16;;;;;;;4.50;2.28;;;27.90;70.20;;;;;;5136191;27;20046;-26
2023/07/08 07:39:42;;;;;;;6.88;2.75;;;28.00;40.80;;;;;;5117418;27;20480;-26
2023/07/08 07:42:09;;;;;;;3.70;2.63;;;28.00;42.60;;;;;;5136879;27;20035;-26
2023/07/08 07:44:35;;;;;;;5.35;2.97;;;27.90;34.50;;;;;;5136017;27;20125;-26
2023/07/08 07:47:02;;;;;;;12.13;3.30;;;28.00;35.00;;;;;;5135994;27;20432;-26
2023/07/08 07:49:28;;;;;;;5.20;2.58;;;28.30;33.30;;;;;;5136205;27;20434;-26
2023/07/08 07:51:54;;;;;;;5.72;2.58;;;28.30;42.70;;;;;;5133776;27;20047;-26
2023/07/08 07:54:20;;;;;;;6.00;2.50;;;28.60;55.90;;;;;;5135721;27;20043;-27
2023/07/08 07:56:46;;;;;;;7.32;3.03;;;28.80;37.80;;;;;;5136128;27;20357;-26
2023/07/08 07:59:11;;;;;;;6.15;2.40;;;29.00;30.50;;;;;;5115283;27;20066;-26
2023/07/08 08:01:37;;;;;;;4.15;2.47;;;29.10;27.30;;;;;;5135810;27;20039;-26
2023/07/08 08:04:03;;;;;;;5.07;2.67;;;29.20;18.40;;;;;;5118314;27;20466;-26
2023/07/08 08:06:29;;;;;;;4.22;2.85;;;29.00;9.00;;;;;;5135525;27;20059;-26
2023/07/08 08:08:56;;;;;;;5.05;2.78;;;29.30;21.30;;;;;;5135485;27;20055;-26
2023/07/08 08:11:22;;;;;;;6.35;2.60;;;29.60;32.20;;;;;;5117747;27;20043;-26
2023/07/08 08:13:48;;;;;;;7.43;3.25;;;29.50;11.00;;;;;;5135420;27;20050;-26
2023/07/08 08:16:13;;;;;;;3.60;2.47;;;29.60;9.50;;;;;;5135402;27;20503;-28
2023/07/08 08:18:39;;;;;;;7.63;2.50;;;29.80;12.70;;;;;;5135584;27;20070;-27
2023/07/08 08:21:05;;;;;;;5.80;2.88;;;30.10;30.60;;;;;;5135248;27;20043;-27
2023/07/08 08:23:30;;;;;;;4.68;2.65;;;30.00;8.70;;;;;;5133608;27;20035;-26
2023/07/08 08:25:56;;;;;;;5.05;2.55;;;30.00;13.40;;;;;;5134844;27;20043;-27
2023/07/08 08:28:22;;;;;;;4.53;2.25;;;30.20;29.70;;;;;;5135135;27;20082;-26
2023/07/08 08:30:49;;;;;;;5.65;2.85;;;30.50;38.10;;;;;;5135085;27;20070;-26
2023/07/08 08:33:15;;;;;;;6.03;2.15;;;30.50;44.60;;;;;;5134233;27;20049;-27
2023/07/08 08:35:44;;;;;;;5.72;2.40;;;30.50;24.30;;;;;;5099996;27;20047;-27
2023/07/08 08:38:11;;;;;;;4.68;2.10;;;30.40;26.60;;;;;;5135067;27;20122;-27
2023/07/08 08:40:39;;;;;;;3.42;2.28;;;30.50;18.90;;;;;;5135192;27;20122;-26
2023/07/08 08:43:12;;;;;;;6.38;2.97;;;30.60;19.30;;;;;;5133187;27;20114;-27
2023/07/08 08:46:23;;;;;;;5.30;2.70;;;30.50;33.80;;;;;;5116849;27;20469;-27
2023/07/08 08:49:27;;;;;;;7.22;2.38;;;30.50;23.30;;;;;;5135444;27;20097;-27
2023/07/08 08:51:54;;;;;;;4.28;2.03;;;30.80;32.10;;;;;;5094635;27;20059;-27
2023/07/08 08:54:19;;;;;;;5.32;2.13;;;31.00;49.40;;;;;;5133910;27;20126;-27
2023/07/08 08:56:56;;;;;;;4.93;2.03;;;31.10;33.80;;;;;;5134858;27;20101;-28
2023/07/08 08:59:42;;;;;;;6.97;2.10;;;31.00;34.50;;;;;;5134637;27;20088;-27
2023/07/08 09:02:31;;;;;;;6.00;2.30;;;31.20;27.90;;;;;;5134759;27;20082;-27
2023/07/08 09:05:07;;;;;;;3.97;2.05;;;31.50;36.40;;;;;;5133501;27;20035;-25
2023/07/08 09:07:44;;;;;;;5.35;2.20;;;31.70;49.90;;;;;;5135011;28;20051;-27
2023/07/08 09:10:30;;;;;;;5.22;2.22;;;31.70;58.60;;;;;;5134589;28;20485;-27
2023/07/08 09:12:57;;;;;;;5.30;2.30;;;31.90;37.20;;;;;;5116884;28;20051;-27
2023/07/08 09:15:26;;;;;;;4.32;2.50;;;32.20;43.60;;;;;;5133418;28;20107;-27
2023/07/08 09:17:57;;;;;;;4.85;2.70;;;32.10;55.90;;;;;;5134220;28;20043;-27
2023/07/08 09:20:29;;;;;;;3.10;2.20;;;32.30;47.30;;;;;;5135124;28;20043;-27
2023/07/08 09:23:11;;;;;;;3.38;2.10;;;32.60;71.30;;;;;;5135388;28;20039;-27
2023/07/08 09:25:52;;;;;;;3.10;2.20;;;32.80;65.10;;;;;;5135414;28;20043;-28
2023/07/08 09:28:18;;;;;;;7.88;2.88;;;33.00;62.70;;;;;;5134202;28;20086;-28
2023/07/08 09:30:51;;;;;;;5.68;2.20;;;32.70;40.90;;;;;;5116518;28;20078;-28
2023/07/08 09:33:16;;;;;;;5.53;2.30;;;32.80;49.60;;;;;;5134334;28;20039;-27
2023/07/08 09:35:46;;;;;;;3.60;2.33;;;33.00;55.30;;;;;;5134424;28;20439;-27
2023/07/08 09:38:17;;;;;;;7.68;2.40;;;33.30;60.20;;;;;;5132759;28;20040;-27
2023/07/08 09:40:55;;;;;;;3.67;2.23;;;;;;;;;;5134332;28;20045;-26
2023/07/08 09:43:38;;;;;;;3.58;1.92;;;33.60;61.50;;;;;;5134269;28;20066;-28
2023/07/08 09:46:04;;;;;;;3.92;2.13;;;33.50;59.40;;;;;;5134358;28;20094;-27
2023/07/08 09:48:35;;;;;;;4.30;2.13;;;33.50;71.10;;;;;;5114433;28;20045;-28
2023/07/08 09:51:02;;;;;;;4.20;2.65;;;33.80;68.80;;;;;;5135190;28;20046;-27
2023/07/08 09:53:28;;;;;;;2.70;2.05;;;33.50;47.10;;;;;;5099863;27;20051;-27
2023/07/08 09:55:58;;;;;;;4.80;2.58;;;33.50;36.70;;;;;;5119641;27;20047;-27
2023/07/08 09:58:29;;;;;;;4.97;2.60;;;33.60;73.00;;;;;;5115945;27;20442;-27
2023/07/08 10:00:57;;;;;;;4.47;2.50;;;33.80;62.90;;;;;;5137270;27;20050;-27
2023/07/08 10:03:31;;;;;;;4.15;2.28;;;33.90;68.60;;;;;;5138013;27;20370;-27
2023/07/08 10:06:00;;;;;;;4.97;2.05;;;33.80;62.30;;;;;;5138618;27;20054;-28
2023/07/08 10:08:37;;;;;;;3.70;2.10;;;33.70;66.90;;;;;;5136865;27;20058;-28
2023/07/08 10:11:38;;;;;;;5.00;2.30;;;33.70;59.60;;;;;;5120366;27;20051;-27
2023/07/08 10:14:11;;;;;;;5.85;2.42;;;33.80;66.80;;;;;;5137819;27;20043;-28
2023/07/08 10:16:37;;;;;;;4.65;2.05;;;34.00;92.30;;;;;;5137862;27;20051;-27
2023/07/08 10:19:16;;;;;;;10.50;2.63;;;34.30;99.90;;;;;;5136663;27;20096;-27
2023/07/08 10:22:02;;;;;;;3.45;2.20;;;34.70;99.20;;;;;;5136844;27;20047;-28
2023/07/08 10:24:49;;;;;;;4.13;2.20;;;34.50;79.40;;;;;;5136453;27;20524;-28
2023/07/08 10:27:26;;;;;;;6.45;2.40;;;34.60;99.90;;;;;;5137559;27;20043;-28
2023/07/08 10:30:17;;;;;;;3.72;2.08;;;34.60;99.90;;;;;;5119010;27;20047;-28
2023/07/08 10:33:03;;;;;;;3.20;2.30;;;34.90;93.90;;;;;;5137343;27;20122;-27
2023/07/08 10:35:37;;;;;;;7.75;3.33;;;34.70;92.00;;;;;;5137471;27;20207;-28
2023/07/08 10:38:27;;;;;;;3.30;2.03;;;34.50;82.60;;;;;;5119363;27;20054;-28
2023/07/08 10:40:52;;;;;;;3.92;1.90;;;34.60;91.30;;;;;;5135556;27;20039;-28
2023/07/08 10:43:39;;;;;;;2.58;2.25;;;34.90;99.90;;;;;;5136772;27;20060;-28
2023/07/08 10:46:23;;;;;;;4.00;2.67;;;35.20;99.90;;;;;;5119983;27;20051;-28
2023/07/08 10:49:17;;;;;;;7.72;2.65;;;35.20;99.90;;;;;;5118980;27;20047;-28
2023/07/08 10:51:54;;;;;;;3.90;2.15;;;35.40;99.90;;;;;;5137034;27;20050;-28
2023/07/08 10:54:54;;;;;;;4.82;2.10;;;35.40;99.90;;;;;;5137136;27;20047;-28
2023/07/08 10:57:38;;;;;;;3.78;2.22;;;35.60;99.90;;;;;;5136551;27;20051;-26
2023/07/08 11:00:07;;;;;;;5.20;2.50;;;35.50;99.90;;;;;;5132315;27;20039;-28
2023/07/08 11:02:51;;;;;;;2.67;1.95;;;35.90;99.90;;;;;;5136841;27;20043;-29
2023/07/08 11:05:46;;;;;;;6.70;2.22;;;36.30;99.90;;;;;;5136439;27;20082;-28
2023/07/08 11:08:23;;;;;;;3.70;2.45;;;36.60;99.90;;;;;;5134184;27;20555;-29
2023/07/08 11:10:58;;;;;;;2.72;2.15;;;36.40;99.90;;;;;;5116593;28;20094;-28
2023/07/08 11:13:28;;;;;;;8.15;2.97;;;36.50;99.90;;;;;;5080811;28;20083;-28
2023/07/08 11:16:10;;;;;;;8.30;2.60;;;36.60;99.90;;;;;;5116069;28;20052;-28
2023/07/08 11:18:58;;;;;;;4.40;2.22;;;36.60;99.90;;;;;;5120369;27;20493;-27
2023/07/08 11:21:31;;;;;;;4.35;2.67;;;36.40;99.90;;;;;;5136415;27;20049;-28
2023/07/08 11:24:07;;;;;;;6.82;2.55;;;36.60;99.90;;;;;;5137360;27;20043;-28
2023/07/08 11:26:47;;;;;;;6.38;2.45;;;36.70;99.90;;;;;;5136453;27;20047;-28
2023/07/08 11:29:24;;;;;;;6.40;2.60;;;36.60;99.90;;;;;;5135771;27;20050;-28
2023/07/08 11:31:52;;;;;;;3.42;2.03;;;36.50;99.90;;;;;;5117449;27;20051;-27
2023/07/08 11:34:19;;;;;;;4.82;2.70;;;36.60;99.90;;;;;;5083927;27;20043;-28
2023/07/08 11:36:46;;;;;;;3.35;2.50;;;36.50;99.90;;;;;;5117536;27;20058;-28
2023/07/08 11:39:37;;;;;;;11.05;3.10;;;36.70;99.90;;;;;;5135070;27;20480;-28
2023/07/08 11:42:29;;;;;;;5.67;2.67;;;36.60;99.90;;;;;;5097208;28;20043;-28
2023/07/08 11:44:58;;;;;;;6.72;3.03;;;36.50;99.90;;;;;;5115877;28;20353;-28
2023/07/08 11:47:38;;;;;;;6.22;2.60;;;36.70;99.90;;;;;;5116284;28;20047;-28
2023/07/08 11:50:31;;;;;;;4.88;2.60;;;36.90;99.90;;;;;;5120090;27;20093;-29
2023/07/08 11:53:11;;;;;;;3.67;2.78;;;36.90;99.90;;;;;;5104752;27;20059;-28
2023/07/08 11:55:59;;;;;;;6.63;2.97;;;37.10;99.90;;;;;;5136173;27;20051;-28
2023/07/08 11:58:30;;;;;;;10.65;2.70;;;37.00;99.90;;;;;;5135752;27;20130;-29
2023/07/08 12:01:19;;;;;;;8.32;3.33;;;37.00;99.90;;;;;;5112491;27;20040;-28
2023/07/08 12:03:58;;;;;;;4.53;3.30;;;36.90;99.90;;;;;;5117405;27;20477;-29
2023/07/08 12:06:27;;;;;;;3.42;2.40;;;37.10;99.90;;;;;;5117847;27;20130;-28
2023/07/08 12:08:58;;;;;;;3.42;2.45;;;37.30;99.90;;;;;;5135448;27;20055;-28
2023/07/08 12:11:33;;;;;;;7.07;2.33;;;37.00;99.90;;;;;;5133089;27;20039;-28
2023/07/08 12:14:01;;;;;;;3.58;2.72;;;37.10;99.90;;;;;;5117238;27;20054;-28
2023/07/08 12:16:29;;;;;;;4.25;2.97;;;37.00;99.90;;;;;;5135489;27;20051;-28
2023/07/08 12:18:56;;;;;;;5.55;2.70;;;37.10;99.90;;;;;;5135309;27;20122;-28
2023/07/08 12:21:23;;;;;;;6.65;2.80;;;37.20;99.90;;;;;;5134936;27;20511;-28
2023/07/08 12:23:49;;;;;;;6.95;2.55;;;37.20;99.90;;;;;;5133600;27;20042;-28
2023/07/08 12:26:16;;;;;;;3.83;2.92;;;37.10;99.90;;;;;;5117090;27;20047;-28
2023/07/08 12:28:43;;;;;;;3.03;2.33;;;36.90;99.90;;;;;;5135223;27;20405;-28
2023/07/08 12:31:20;;;;;;;3.95;3.03;;;37.10;99.90;;;;;;5117907;27;20085;-28
2023/07/08 12:33:47;;;;;;;5.05;2.85;;;37.30;99.90;;;;;;5134311;27;20549;-28
2023/07/08 12:36:24;;;;;;;3.67;2.75;;;37.20;99.90;;;;;;5116486;27;20480;-28
2023/07/08 12:38:52;;;;;;;7.03;3.15;;;37.20;99.90;;;;;;5135680;27;20047;-28
2023/07/08 12:41:23;;;;;;;4.35;2.85;;;37.30;99.90;;;;;;5134931;27;20050;-28
2023/07/08 12:43:50;;;;;;;;;;;37.50;99.90;;;;;;5133992;27;20065;-28
2023/07/08 12:46:18;;;;;;;6.50;2.80;;;37.50;99.90;;;;;;5134759;27;19923;-28
2023/07/08 12:48:44;;;;;;;3.70;2.85;;;37.60;99.90;;;;;;5135320;27;20172;-28
2023/07/08 12:51:22;;;;;;;5.80;2.72;;;37.60;99.90;;;;;;5134607;27;20035;-28
2023/07/08 12:53:50;;;;;;;3.40;2.28;;;37.60;99.90;;;;;;5115522;28;20039;-29
2023/07/08 12:56:17;;;;;;;4.53;2.88;;;37.80;99.90;;;;;;5134737;27;20529;-28
2023/07/08 12:58:50;;;;;;;6.38;2.70;;;37.80;99.90;;;;;;5135320;27;20046;-28
2023/07/08 13:01:21;;;;;;;4.13;3.28;;;37.50;99.90;;;;;;5116107;27;20039;-28